NCAR-RAP Real-Time Weather Data

Output produced by METARs form (06 May 2021  16:15 UTC)
found at http://weather.rap.ucar.edu/surface/
 
KHTL 061553Z AUTO 25006KT 10SM FEW033 BKN041 OVC050 07/01 A3012 RMK AO2 SLP210 T00720006
KHTL 061453Z AUTO 23008KT 10SM FEW024 BKN038 OVC047 07/02 A3013 RMK AO2 RAB33E44 SLP213 P0000 60000 T00720017 50002
KHTL 061353Z AUTO 26008KT 10SM SCT047 OVC075 07/01 A3013 RMK AO2 SLP212 T00720006
KHTL 061253Z AUTO 26006KT 10SM OVC080 07/01 A3013 RMK AO2 SLP211 T00670006
KHTL 061153Z AUTO 00000KT 10SM OVC085 04/02 A3012 RMK AO2 SLP208 T00440017 10044 21006 53003
KHTL 061053Z AUTO 00000KT 10SM BKN070 OVC090 01/00 A3011 RMK AO2 SLP204 T00060000
KHTL 060953Z AUTO 00000KT 10SM CLR 00/M02 A3011 RMK AO2 SLP206 T00001017
KHTL 060853Z AUTO 00000KT 10SM BKN090 BKN110 02/M01 A3011 RMK AO2 SLP206 T00171006 56006
KHTL 060753Z AUTO 00000KT 10SM BKN100 02/M01 A3012 RMK AO2 SLP208 T00171006
KHTL 060653Z AUTO 00000KT 10SM BKN110 02/M01 A3013 RMK AO2 SLP210 T00221006
KHTL 060553Z AUTO 00000KT 10SM FEW120 02/M02 A3013 RMK AO2 SLP213 T00221017 10094 20017 58000
KHTL 060453Z AUTO 30003KT 10SM CLR 03/M02 A3014 RMK AO2 SLP217 T00331017 401110017
KHTL 060353Z AUTO 30004KT 10SM CLR 02/M01 A3014 RMK AO2 SLP218 T00221011
KHTL 060253Z AUTO 34003KT 10SM CLR 03/M02 A3013 RMK AO2 SLP215 T00281017 51014
KHTL 060153Z AUTO 31005KT 10SM CLR 06/M03 A3013 RMK AO2 SLP213 T00561028
KHTL 060053Z AUTO 31008KT 10SM CLR 07/M03 A3011 RMK AO2 SLP204 T00721028